createdAt,value
2022-11-05T00:00:59.618Z,96764.88
2022-11-05T00:03:44.393Z,96769.03
2022-11-05T00:06:29.798Z,96778.16
2022-11-05T00:09:15.346Z,96782.53
2022-11-05T00:12:00.571Z,96785.13
2022-11-05T00:14:45.721Z,96780.06
2022-11-05T00:17:12.426Z,96782.38
2022-11-05T00:19:38.980Z,96782.00
2022-11-05T00:22:24.098Z,96779.94
2022-11-05T00:25:09.564Z,96786.16
2022-11-05T00:27:36.322Z,96786.28
2022-11-05T00:30:02.882Z,96784.44
2022-11-05T00:32:29.370Z,96788.13
2022-11-05T00:34:55.828Z,96786.16
2022-11-05T00:37:22.312Z,96778.75
2022-11-05T00:39:48.789Z,96789.94
2022-11-05T00:42:33.906Z,96790.28
2022-11-05T00:45:03.118Z,96800.16
2022-11-05T00:47:49.990Z,96801.09
2022-11-05T00:50:17.839Z,96797.78
2022-11-05T00:52:56.601Z,96787.75
2022-11-05T00:55:30.054Z,96798.94
2022-11-05T00:57:57.616Z,96792.38
2022-11-05T01:00:27.175Z,96800.44
2022-11-05T01:02:54.059Z,96808.00
2022-11-05T01:05:20.630Z,96812.31
2022-11-05T01:07:47.423Z,96809.31
2022-11-05T01:10:13.993Z,96807.91
2022-11-05T01:12:40.512Z,96818.63
2022-11-05T01:15:07.487Z,96818.22
2022-11-05T01:17:34.464Z,96831.22
2022-11-05T01:20:01.393Z,96822.06
2022-11-05T01:22:27.893Z,96821.34
2022-11-05T01:24:54.537Z,96819.63
2022-11-05T01:27:21.056Z,96813.84
2022-11-05T01:29:48.529Z,96814.44
2022-11-05T01:32:15.129Z,96809.09
2022-11-05T01:34:41.605Z,96802.84
2022-11-05T01:37:08.278Z,96806.13
2022-11-05T01:39:34.745Z,96807.25
2022-11-05T01:42:01.419Z,96810.41
2022-11-05T01:44:49.804Z,96814.38
2022-11-05T01:47:36.217Z,96820.13
2022-11-05T01:50:12.814Z,96813.03
2022-11-05T01:52:39.554Z,96822.06
2022-11-05T01:55:10.035Z,96827.63
2022-11-05T01:57:36.658Z,96831.81
2022-11-05T02:00:04.129Z,96827.31
2022-11-05T02:02:31.277Z,96834.59
2022-11-05T02:05:02.144Z,96840.63
2022-11-05T02:07:30.299Z,96845.06
2022-11-05T02:10:06.453Z,96855.91
2022-11-05T02:12:34.300Z,96859.22
2022-11-05T02:15:00.803Z,96860.06
2022-11-05T02:17:42.476Z,96862.47
2022-11-05T02:20:19.037Z,96865.66
2022-11-05T02:23:10.326Z,96861.13
2022-11-05T02:26:07.902Z,96862.19
2022-11-05T02:29:09.782Z,96855.81
2022-11-05T02:31:40.845Z,96857.34
2022-11-05T02:34:39.633Z,96861.38
2022-11-05T02:37:12.123Z,96867.34
2022-11-05T02:39:50.714Z,96864.75
2022-11-05T02:42:48.573Z,96868.88
2022-11-05T02:45:38.273Z,96862.09
2022-11-05T02:48:20.124Z,96860.41
2022-11-05T02:50:59.081Z,96863.56
2022-11-05T02:53:34.282Z,96869.47
2022-11-05T02:56:05.730Z,96866.25
2022-11-05T02:58:34.866Z,96864.69
2022-11-05T03:01:06.706Z,96872.22
2022-11-05T03:03:45.358Z,96875.59
2022-11-05T03:06:11.806Z,96877.31
2022-11-05T03:08:56.093Z,96892.84
2022-11-05T03:11:26.932Z,96894.13
2022-11-05T03:14:20.679Z,96902.13
2022-11-05T03:16:57.909Z,96905.66
2022-11-05T03:19:47.926Z,96915.16
2022-11-05T03:22:22.942Z,96916.72
2022-11-05T03:24:55.293Z,96915.22
2022-11-05T03:27:30.355Z,96911.91
2022-11-05T03:30:03.349Z,96923.97
2022-11-05T03:32:34.788Z,96925.84
2022-11-05T03:35:15.188Z,96927.19
2022-11-05T03:37:43.858Z,96924.66
2022-11-05T03:40:12.657Z,96929.88
2022-11-05T03:42:45.183Z,96936.00
2022-11-05T03:45:19.167Z,96936.84
2022-11-05T03:47:47.738Z,96938.63
2022-11-05T03:50:28.947Z,96936.09
2022-11-05T03:53:19.796Z,96934.94
2022-11-05T03:55:52.854Z,96925.22
2022-11-05T03:58:21.482Z,96931.34
2022-11-05T04:00:49.587Z,96934.78
2022-11-05T04:03:16.456Z,96936.13
2022-11-05T04:05:43.327Z,96934.66
2022-11-05T04:08:28.700Z,96943.56
2022-11-05T04:11:13.355Z,96954.53
2022-11-05T04:13:39.811Z,96950.94
2022-11-05T04:16:24.850Z,96955.16
2022-11-05T04:18:51.291Z,96953.84
2022-11-05T04:21:36.243Z,96959.22
2022-11-05T04:24:08.513Z,96961.69
2022-11-05T04:26:40.713Z,96963.63
2022-11-05T04:29:27.063Z,96943.59
2022-11-05T04:31:54.364Z,96942.97
2022-11-05T04:34:22.184Z,96953.06
2022-11-05T04:36:49.958Z,96950.28
2022-11-05T04:39:20.539Z,96961.88
2022-11-05T04:41:48.215Z,96961.59
2022-11-05T04:44:15.998Z,96958.97
2022-11-05T04:46:42.811Z,96967.72
2022-11-05T04:49:09.267Z,96973.63
2022-11-05T04:51:35.749Z,96966.19
2022-11-05T04:54:02.335Z,96971.03
2022-11-05T04:56:28.886Z,96964.47
2022-11-05T04:58:55.408Z,96968.31
2022-11-05T05:01:23.552Z,96977.97
2022-11-05T05:03:51.697Z,96982.28
2022-11-05T05:06:19.092Z,96978.84
2022-11-05T05:08:49.822Z,96985.44
2022-11-05T05:11:19.644Z,96990.56
2022-11-05T05:13:46.462Z,96985.06
2022-11-05T05:16:25.395Z,96986.69
2022-11-05T05:18:53.282Z,96982.31
2022-11-05T05:21:40.551Z,96971.78
2022-11-05T05:24:08.830Z,96991.38
2022-11-05T05:26:40.700Z,96990.06
2022-11-05T05:29:07.570Z,96985.78
2022-11-05T05:31:34.534Z,96990.75
2022-11-05T05:34:01.179Z,96994.72
2022-11-05T05:36:28.191Z,96994.03
2022-11-05T05:38:54.795Z,96989.50
2022-11-05T05:41:21.570Z,96987.53
2022-11-05T05:43:48.152Z,96996.88
2022-11-05T05:46:15.815Z,96990.84
2022-11-05T05:48:43.248Z,96994.81
2022-11-05T05:51:11.669Z,96998.91
2022-11-05T05:53:38.859Z,96998.91
2022-11-05T05:56:06.117Z,96997.22
2022-11-05T05:58:39.324Z,97004.22
2022-11-05T06:01:10.988Z,97014.59
2022-11-05T06:03:40.893Z,97018.03
2022-11-05T06:06:10.197Z,97025.03
2022-11-05T06:08:36.867Z,97028.25
2022-11-05T06:11:04.394Z,97015.72
2022-11-05T06:13:31.742Z,97022.53
2022-11-05T06:16:02.688Z,97019.34
2022-11-05T06:18:30.047Z,97024.97
2022-11-05T06:21:11.124Z,97037.25
2022-11-05T06:23:39.034Z,97039.13
2022-11-05T06:26:08.490Z,97054.47
2022-11-05T06:28:35.265Z,97056.53
2022-11-05T06:31:02.184Z,97060.94
2022-11-05T06:33:28.950Z,97062.59
2022-11-05T06:35:59.094Z,97066.22
2022-11-05T06:38:25.484Z,97069.69
2022-11-05T06:40:51.993Z,97080.69
2022-11-05T06:43:18.531Z,97079.16
2022-11-05T06:45:45.026Z,97086.00
2022-11-05T06:48:11.466Z,97092.38
2022-11-05T06:50:38.163Z,97092.81
2022-11-05T06:53:05.589Z,97094.59
2022-11-05T06:55:32.255Z,97102.13
2022-11-05T06:57:58.986Z,97092.16
2022-11-05T07:00:26.033Z,97098.75
2022-11-05T07:02:52.631Z,97105.59
2022-11-05T07:05:19.127Z,97106.19
2022-11-05T07:07:46.030Z,97113.81
2022-11-05T07:10:15.195Z,97120.09
2022-11-05T07:12:42.021Z,97117.94
2022-11-05T07:15:10.351Z,97123.25
2022-11-05T07:17:36.874Z,97127.13
2022-11-05T07:20:04.637Z,97119.97
2022-11-05T07:22:31.155Z,97129.56
2022-11-05T07:24:57.817Z,97136.34
2022-11-05T07:27:24.317Z,97131.63
2022-11-05T07:29:50.819Z,97138.91
2022-11-05T07:32:17.360Z,97138.97
2022-11-05T07:34:43.838Z,97143.50
2022-11-05T07:37:10.525Z,97143.69
2022-11-05T07:39:37.025Z,97144.69
2022-11-05T07:42:03.682Z,97147.41
2022-11-05T07:44:30.177Z,97143.94
2022-11-05T07:46:56.667Z,97152.88
2022-11-05T07:49:23.898Z,97162.03
2022-11-05T07:51:50.457Z,97163.88
2022-11-05T07:54:17.112Z,97164.97
2022-11-05T07:56:43.628Z,97159.78
2022-11-05T07:59:10.121Z,97161.66
2022-11-05T08:01:36.798Z,97167.25
2022-11-05T08:04:03.499Z,97158.63
2022-11-05T08:06:29.987Z,97154.25
2022-11-05T08:08:56.478Z,97159.88
2022-11-05T08:11:22.991Z,97161.19
2022-11-05T08:13:49.457Z,97163.72
2022-11-05T08:16:16.027Z,97164.91
2022-11-05T08:18:42.511Z,97168.38
2022-11-05T08:21:09.558Z,97165.66
2022-11-05T08:23:36.121Z,97165.53
2022-11-05T08:26:03.848Z,97166.81
2022-11-05T08:28:30.397Z,97163.16
2022-11-05T08:30:57.604Z,97171.97
2022-11-05T08:33:25.274Z,97170.09
2022-11-05T08:35:51.802Z,97175.25
2022-11-05T08:38:20.002Z,97166.63
2022-11-05T08:40:55.046Z,97173.56
2022-11-05T08:43:21.743Z,97179.38
2022-11-05T08:45:48.239Z,97177.31
2022-11-05T08:48:17.106Z,97179.59
2022-11-05T08:50:44.887Z,97180.97
2022-11-05T08:53:12.286Z,97182.75
2022-11-05T08:55:39.115Z,97185.56
2022-11-05T08:58:10.686Z,97185.91
2022-11-05T09:00:37.578Z,97183.34
2022-11-05T09:03:05.791Z,97189.34
2022-11-05T09:05:38.112Z,97195.91
2022-11-05T09:08:12.658Z,97192.47
2022-11-05T09:10:40.305Z,97201.28
2022-11-05T09:13:07.142Z,97199.88
2022-11-05T09:15:35.495Z,97195.59
2022-11-05T09:18:03.259Z,97196.75
2022-11-05T09:20:29.954Z,97203.38
2022-11-05T09:22:56.472Z,97207.22
2022-11-05T09:25:22.968Z,97212.63
2022-11-05T09:27:49.530Z,97218.44
2022-11-05T09:30:16.393Z,97218.88
2022-11-05T09:32:42.859Z,97219.72
2022-11-05T09:35:09.964Z,97219.06
2022-11-05T09:37:37.363Z,97216.13
2022-11-05T09:40:04.564Z,97223.88
2022-11-05T09:42:37.984Z,97221.84
2022-11-05T09:45:16.897Z,97231.69
2022-11-05T09:47:49.511Z,97214.19
2022-11-05T09:50:35.543Z,97226.88
2022-11-05T09:53:03.940Z,97218.28
2022-11-05T09:55:37.286Z,97221.75
2022-11-05T09:58:13.613Z,97224.47
2022-11-05T10:00:40.490Z,97230.16
2022-11-05T10:03:12.423Z,97232.78
2022-11-05T10:05:40.587Z,97228.94
2022-11-05T10:08:23.659Z,97230.53
2022-11-05T10:10:54.922Z,97227.25
2022-11-05T10:13:42.261Z,97235.31
2022-11-05T10:16:26.123Z,97238.22
2022-11-05T10:19:09.739Z,97242.06
2022-11-05T10:22:04.845Z,97235.03
2022-11-05T10:24:24.464Z,97240.72
2022-11-05T10:26:53.081Z,97242.84
2022-11-05T10:29:29.557Z,97250.91
2022-11-05T10:32:01.076Z,97245.72
2022-11-05T10:34:32.146Z,97258.38
2022-11-05T10:36:59.112Z,97263.25
2022-11-05T10:39:27.836Z,97258.88
2022-11-05T10:41:54.342Z,97258.16
2022-11-05T10:44:36.087Z,97259.78
2022-11-05T10:47:09.030Z,97262.66
2022-11-05T10:49:41.410Z,97267.97
2022-11-05T10:52:35.876Z,97250.53
2022-11-05T10:55:30.056Z,97255.72
2022-11-05T10:58:29.006Z,97255.69
2022-11-05T11:00:55.547Z,97254.66
2022-11-05T11:03:46.903Z,97255.03
2022-11-05T11:06:21.892Z,97256.06
2022-11-05T11:08:50.320Z,97253.75
2022-11-05T11:11:46.113Z,97253.72
2022-11-05T11:14:12.575Z,97258.81
2022-11-05T11:16:44.331Z,97253.63
2022-11-05T11:19:32.016Z,97260.69
2022-11-05T11:22:14.077Z,97259.34
2022-11-05T11:24:48.194Z,97264.63
2022-11-05T11:27:22.566Z,97265.88
2022-11-05T11:29:55.030Z,97259.16
2022-11-05T11:32:21.817Z,97258.34
2022-11-05T11:34:53.956Z,97257.50
2022-11-05T11:37:28.524Z,97262.00
2022-11-05T11:39:59.701Z,97261.44
2022-11-05T11:42:34.118Z,97259.19
2022-11-05T11:45:06.293Z,97263.34
2022-11-05T11:47:33.587Z,97265.94
2022-11-05T11:50:01.671Z,97260.50
2022-11-05T11:52:32.293Z,97266.81
2022-11-05T11:55:13.712Z,97264.38
2022-11-05T11:57:49.679Z,97266.75
2022-11-05T12:00:18.063Z,97270.16
2022-11-05T12:03:12.134Z,97275.53
2022-11-05T12:06:11.114Z,97283.56
2022-11-05T12:09:06.697Z,97278.06
2022-11-05T12:11:43.777Z,97277.03
2022-11-05T12:14:26.920Z,97281.16
2022-11-05T12:17:12.947Z,97279.31
2022-11-05T12:20:02.048Z,97276.28
2022-11-05T12:23:06.127Z,97272.97
2022-11-05T12:25:54.425Z,97279.91
2022-11-05T12:28:30.095Z,97284.31
2022-11-05T12:31:05.555Z,97280.81
2022-11-05T12:33:47.173Z,97284.34
2022-11-05T12:36:37.044Z,97286.44
2022-11-05T12:39:28.481Z,97292.66
2022-11-05T12:42:19.022Z,97284.53
2022-11-05T12:44:53.156Z,97281.28
2022-11-05T12:47:49.204Z,97284.09
2022-11-05T12:50:28.007Z,97288.94
2022-11-05T12:52:57.467Z,97290.72
2022-11-05T12:55:36.979Z,97294.22
2022-11-05T12:58:39.191Z,97297.53
2022-11-05T13:01:18.213Z,97287.56
2022-11-05T13:03:54.738Z,97294.91
2022-11-05T13:06:27.629Z,97303.63
2022-11-05T13:09:03.010Z,97293.81
2022-11-05T13:11:49.550Z,97295.97
2022-11-05T13:14:23.060Z,97293.66
2022-11-05T13:17:02.297Z,97306.50
2022-11-05T13:19:44.544Z,97299.13
2022-11-05T13:22:39.956Z,97302.16
2022-11-05T13:25:28.631Z,97297.25
2022-11-05T13:28:32.842Z,97297.44
2022-11-05T13:31:02.336Z,97286.84
2022-11-05T13:33:37.917Z,97282.25
2022-11-05T13:36:31.643Z,97292.53
2022-11-05T13:39:01.404Z,97293.28
2022-11-05T13:41:52.654Z,97293.56
2022-11-05T13:44:47.557Z,97284.31
2022-11-05T13:47:28.237Z,97292.75
2022-11-05T13:50:19.591Z,97282.41
2022-11-05T13:53:23.594Z,97284.22
2022-11-05T13:56:03.165Z,97300.72
2022-11-05T13:58:46.611Z,97291.84
2022-11-05T14:01:26.751Z,97295.19
2022-11-05T14:03:55.476Z,97306.28
2022-11-05T14:06:40.094Z,97302.66
2022-11-05T14:09:11.909Z,97297.88
2022-11-05T14:11:43.167Z,97302.75
2022-11-05T14:14:28.884Z,97306.88
2022-11-05T14:17:17.263Z,97300.97
2022-11-05T14:20:04.667Z,97299.88
2022-11-05T14:22:31.097Z,97307.53
2022-11-05T14:25:02.620Z,97304.22
2022-11-05T14:27:29.090Z,97305.72
2022-11-05T14:29:55.932Z,97309.13
2022-11-05T14:32:25.359Z,97311.97
2022-11-05T14:35:04.969Z,97314.16
2022-11-05T14:37:36.953Z,97323.66
2022-11-05T14:40:37.080Z,97323.03
2022-11-05T14:43:23.938Z,97323.94
2022-11-05T14:45:56.736Z,97324.53
2022-11-05T14:48:41.002Z,97330.66
2022-11-05T14:51:31.636Z,97335.09
2022-11-05T14:54:03.370Z,97339.31
2022-11-05T14:56:47.181Z,97339.44
2022-11-05T14:59:24.787Z,97344.41
2022-11-05T15:01:54.471Z,97352.00
2022-11-05T15:04:32.510Z,97349.00
2022-11-05T15:07:01.850Z,97349.00
2022-11-05T15:09:35.278Z,97346.25
2022-11-05T15:12:16.586Z,97351.00
2022-11-05T15:14:57.432Z,97358.88
2022-11-05T15:17:41.311Z,97357.72
2022-11-05T15:20:14.364Z,97359.59
2022-11-05T15:22:44.623Z,97358.97
2022-11-05T15:25:29.387Z,97352.94
2022-11-05T15:28:06.400Z,97362.81
2022-11-05T15:30:33.498Z,97359.31
2022-11-05T15:33:21.452Z,97362.97
2022-11-05T15:35:48.212Z,97363.06
2022-11-05T15:38:30.670Z,97364.84
2022-11-05T15:41:03.978Z,97367.28
2022-11-05T15:43:31.078Z,97365.09
2022-11-05T15:46:07.285Z,97368.66
2022-11-05T15:48:35.925Z,97367.91
2022-11-05T15:51:02.635Z,97366.50
2022-11-05T15:56:26.813Z,97374.28
2022-11-05T15:58:59.404Z,97383.16
2022-11-05T16:01:37.873Z,97376.56
2022-11-05T16:04:19.065Z,97377.50
2022-11-05T16:06:48.883Z,97382.06
2022-11-05T16:09:30.432Z,97383.94
2022-11-05T16:12:18.295Z,97391.66
2022-11-05T16:15:08.010Z,97388.25
2022-11-05T16:17:37.491Z,97389.78
2022-11-05T16:20:38.717Z,97390.88
2022-11-05T16:23:21.745Z,97390.78
2022-11-05T16:25:48.405Z,97388.25
2022-11-05T16:28:27.193Z,97401.38
2022-11-05T16:30:59.711Z,97401.56
2022-11-05T16:33:31.793Z,97408.56
2022-11-05T16:35:58.363Z,97407.13
2022-11-05T16:38:25.083Z,97409.34
2022-11-05T16:40:51.573Z,97409.50
2022-11-05T16:43:22.314Z,97405.25
2022-11-05T16:45:49.258Z,97415.00
2022-11-05T16:48:16.497Z,97428.13
2022-11-05T16:50:43.425Z,97429.81
2022-11-05T16:53:10.123Z,97428.44
2022-11-05T16:55:38.644Z,97432.75
2022-11-05T16:58:06.421Z,97431.16
2022-11-05T17:00:33.377Z,97437.50
2022-11-05T17:02:59.944Z,97431.47
2022-11-05T17:05:29.913Z,97436.56
2022-11-05T17:07:57.287Z,97440.22
2022-11-05T17:10:25.478Z,97442.91
2022-11-05T17:12:52.230Z,97440.34
2022-11-05T17:15:28.257Z,97448.59
2022-11-05T17:17:55.254Z,97443.31
2022-11-05T17:20:42.388Z,97450.59
2022-11-05T17:23:11.300Z,97452.34
2022-11-05T17:25:39.372Z,97453.91
2022-11-05T17:28:06.832Z,97459.38
2022-11-05T17:30:33.353Z,97459.63
2022-11-05T17:32:59.932Z,97457.84
2022-11-05T17:35:27.122Z,97464.25
2022-11-05T17:37:53.635Z,97467.63
2022-11-05T17:40:24.865Z,97474.56
2022-11-05T17:42:52.641Z,97467.19
2022-11-05T17:45:22.042Z,97472.25
2022-11-05T17:47:48.864Z,97466.34
2022-11-05T17:50:17.398Z,97470.66
2022-11-05T17:52:44.539Z,97469.72
2022-11-05T17:55:17.641Z,97471.38
2022-11-05T17:57:48.417Z,97474.13
2022-11-05T18:00:18.284Z,97478.44
2022-11-05T18:03:09.622Z,97477.09
2022-11-05T18:05:37.807Z,97485.69
2022-11-05T18:08:05.142Z,97478.09
2022-11-05T18:10:32.739Z,97496.25
2022-11-05T18:12:59.284Z,97496.97
2022-11-05T18:15:25.793Z,97496.97
2022-11-05T18:17:52.322Z,97495.19
2022-11-05T18:20:19.730Z,97498.88
2022-11-05T18:22:49.714Z,97497.19
2022-11-05T18:25:17.410Z,97502.59
2022-11-05T18:27:44.320Z,97503.59
2022-11-05T18:30:13.950Z,97503.66
2022-11-05T18:32:40.527Z,97513.28
2022-11-05T18:35:07.440Z,97515.84
2022-11-05T18:37:34.013Z,97512.28
2022-11-05T18:40:00.509Z,97516.31
2022-11-05T18:42:27.021Z,97511.78
2022-11-05T18:44:53.714Z,97507.44
2022-11-05T18:47:20.439Z,97509.06
2022-11-05T18:49:46.984Z,97512.00
2022-11-05T18:52:13.714Z,97515.47
2022-11-05T18:54:40.277Z,97515.41
2022-11-05T18:57:07.077Z,97514.78
2022-11-05T18:59:38.819Z,97526.97
2022-11-05T19:02:09.036Z,97520.38
2022-11-05T19:04:37.081Z,97531.88
2022-11-05T19:07:05.403Z,97528.25
2022-11-05T19:09:34.360Z,97532.78
2022-11-05T19:12:01.487Z,97532.09
2022-11-05T19:14:30.518Z,97528.53
2022-11-05T19:17:11.133Z,97533.94
2022-11-05T19:19:38.320Z,97532.47
2022-11-05T19:22:05.566Z,97535.22
2022-11-05T19:24:32.072Z,97533.47
2022-11-05T19:26:58.536Z,97537.16
2022-11-05T19:29:25.049Z,97534.56
2022-11-05T19:31:51.544Z,97539.84
2022-11-05T19:34:18.079Z,97533.13
2022-11-05T19:36:44.858Z,97535.84
2022-11-05T19:39:14.148Z,97536.00
2022-11-05T19:41:40.978Z,97536.75
2022-11-05T19:44:07.954Z,97540.78
2022-11-05T19:46:34.565Z,97538.75
2022-11-05T19:49:01.540Z,97544.78
2022-11-05T19:51:30.484Z,97548.03
2022-11-05T19:53:58.144Z,97543.09
2022-11-05T19:56:27.593Z,97542.16
2022-11-05T19:58:54.645Z,97543.00
2022-11-05T20:01:23.186Z,97540.19
2022-11-05T20:03:50.417Z,97532.53
2022-11-05T20:06:23.543Z,97539.63
2022-11-05T20:09:19.869Z,97531.69
2022-11-05T20:11:37.755Z,97535.16
2022-11-05T20:14:05.416Z,97533.94
2022-11-05T20:16:42.819Z,97545.53
2022-11-05T20:19:14.076Z,97540.00
2022-11-05T20:21:41.464Z,97533.22
2022-11-05T20:24:08.415Z,97536.13
2022-11-05T20:26:34.921Z,97536.34
2022-11-05T20:29:01.546Z,97539.06
2022-11-05T20:31:28.127Z,97535.41
2022-11-05T20:33:54.666Z,97544.88
2022-11-05T20:36:23.506Z,97546.47
2022-11-05T20:38:52.094Z,97542.81
2022-11-05T20:41:19.110Z,97548.13
2022-11-05T20:43:46.847Z,97541.78
2022-11-05T20:46:17.662Z,97541.06
2022-11-05T20:48:45.057Z,97538.84
2022-11-05T20:51:17.436Z,97542.97
2022-11-05T20:53:46.172Z,97536.94
2022-11-05T20:56:22.606Z,97550.41
2022-11-05T20:58:49.947Z,97558.16
2022-11-05T21:01:17.614Z,97558.00
2022-11-05T21:03:45.441Z,97547.75
2022-11-05T21:06:13.098Z,97556.59
2022-11-05T21:08:39.637Z,97559.97
2022-11-05T21:11:07.077Z,97564.75
2022-11-05T21:13:34.044Z,97556.91
2022-11-05T21:16:01.185Z,97563.72
2022-11-05T21:18:31.005Z,97560.75
2022-11-05T21:20:59.914Z,97563.38
2022-11-05T21:23:29.474Z,97560.00
2022-11-05T21:25:56.039Z,97562.50
2022-11-05T21:28:23.009Z,97566.22
2022-11-05T21:30:49.591Z,97560.78
2022-11-05T21:33:18.080Z,97562.38
2022-11-05T21:35:47.736Z,97565.59
2022-11-05T21:38:16.519Z,97559.84
2022-11-05T21:40:44.446Z,97563.81
2022-11-05T21:43:11.627Z,97557.81
2022-11-05T21:45:39.865Z,97553.53
2022-11-05T21:48:07.422Z,97563.91
2022-11-05T21:50:52.895Z,97567.34
2022-11-05T21:53:38.702Z,97570.28
2022-11-05T21:56:29.720Z,97571.72
2022-11-05T21:59:34.744Z,97571.38
2022-11-05T22:02:01.948Z,97571.09
2022-11-05T22:04:34.333Z,97573.22
2022-11-05T22:07:01.234Z,97566.84
2022-11-05T22:09:28.371Z,97561.41
2022-11-05T22:11:55.492Z,97561.53
2022-11-05T22:14:22.509Z,97565.09
2022-11-05T22:16:49.013Z,97560.00
2022-11-05T22:19:15.562Z,97570.59
2022-11-05T22:21:42.318Z,97566.50
2022-11-05T22:24:09.335Z,97564.59
2022-11-05T22:26:37.604Z,97564.16
2022-11-05T22:29:05.155Z,97563.00
2022-11-05T22:31:37.847Z,97568.66
2022-11-05T22:34:06.063Z,97568.34
2022-11-05T22:36:33.982Z,97580.28
2022-11-05T22:39:00.816Z,97570.16
2022-11-05T22:41:27.326Z,97570.09
2022-11-05T22:43:53.933Z,97576.84
2022-11-05T22:46:23.096Z,97579.38
2022-11-05T22:48:50.449Z,97583.50
2022-11-05T22:51:22.260Z,97580.47
2022-11-05T22:53:49.284Z,97585.34
2022-11-05T22:56:19.890Z,97591.16
2022-11-05T22:58:47.134Z,97582.19
2022-11-05T23:01:15.718Z,97581.84
2022-11-05T23:03:44.155Z,97576.53
2022-11-05T23:06:33.814Z,97575.00
2022-11-05T23:09:19.657Z,97576.63
2022-11-05T23:11:49.353Z,97581.00
2022-11-05T23:14:16.374Z,97580.94
2022-11-05T23:17:02.130Z,97580.78
2022-11-05T23:19:47.592Z,97580.34
2022-11-05T23:22:42.169Z,97580.44
2022-11-05T23:25:13.568Z,97583.25
2022-11-05T23:27:40.867Z,97582.09
2022-11-05T23:30:20.252Z,97582.09
2022-11-05T23:32:47.267Z,97583.97
2022-11-05T23:35:14.054Z,97575.28
2022-11-05T23:37:59.154Z,97577.94
2022-11-05T23:40:28.614Z,97571.78
2022-11-05T23:43:14.406Z,97571.16
2022-11-05T23:45:54.745Z,97573.13
2022-11-05T23:48:35.516Z,97575.13
2022-11-05T23:51:05.140Z,97569.84
2022-11-05T23:53:34.792Z,97570.69
2022-11-05T23:56:11.408Z,97564.94
2022-11-05T23:58:39.501Z,97571.09
